sensor_id;sensor_type;location;lat;lon;timestamp;P1;durP1;ratioP1;P2;durP2;ratioP2
4500;SDS011;2263;54.654;9.410;2023-02-28T00:00:48;4.07;;;3.77;;
4500;SDS011;2263;54.654;9.410;2023-02-28T00:03:32;3.57;;;3.23;;
4500;SDS011;2263;54.654;9.410;2023-02-28T00:06:18;6.20;;;4.10;;
4500;SDS011;2263;54.654;9.410;2023-02-28T00:09:04;4.77;;;4.23;;
4500;SDS011;2263;54.654;9.410;2023-02-28T00:11:48;3.60;;;3.30;;
4500;SDS011;2263;54.654;9.410;2023-02-28T00:14:33;3.57;;;3.27;;
4500;SDS011;2263;54.654;9.410;2023-02-28T00:17:17;5.87;;;4.27;;
4500;SDS011;2263;54.654;9.410;2023-02-28T00:20:05;4.97;;;4.57;;
4500;SDS011;2263;54.654;9.410;2023-02-28T00:22:56;3.97;;;3.13;;
4500;SDS011;2263;54.654;9.410;2023-02-28T00:25:41;4.90;;;4.30;;
4500;SDS011;2263;54.654;9.410;2023-02-28T00:28:25;5.73;;;3.70;;
4500;SDS011;2263;54.654;9.410;2023-02-28T00:31:10;4.70;;;4.30;;
4500;SDS011;2263;54.654;9.410;2023-02-28T00:33:54;3.33;;;3.03;;
4500;SDS011;2263;54.654;9.410;2023-02-28T00:36:39;3.90;;;3.37;;
4500;SDS011;2263;54.654;9.410;2023-02-28T00:39:27;3.53;;;3.23;;
4500;SDS011;2263;54.654;9.410;2023-02-28T00:42:11;4.03;;;3.53;;
4500;SDS011;2263;54.654;9.410;2023-02-28T00:44:56;3.60;;;3.13;;
4500;SDS011;2263;54.654;9.410;2023-02-28T00:47:40;6.47;;;5.97;;
4500;SDS011;2263;54.654;9.410;2023-02-28T00:50:24;4.33;;;3.93;;
4500;SDS011;2263;54.654;9.410;2023-02-28T00:53:09;4.60;;;4.30;;
4500;SDS011;2263;54.654;9.410;2023-02-28T00:55:53;5.00;;;3.03;;
4500;SDS011;2263;54.654;9.410;2023-02-28T00:58:37;4.70;;;3.60;;
4500;SDS011;2263;54.654;9.410;2023-02-28T01:01:22;4.00;;;3.70;;
4500;SDS011;2263;54.654;9.410;2023-02-28T01:04:06;5.73;;;3.90;;
4500;SDS011;2263;54.654;9.410;2023-02-28T01:06:51;4.10;;;3.80;;
4500;SDS011;2263;54.654;9.410;2023-02-28T01:09:36;4.23;;;3.83;;
4500;SDS011;2263;54.654;9.410;2023-02-28T01:12:20;3.97;;;3.53;;
4500;SDS011;2263;54.654;9.410;2023-02-28T01:15:04;3.37;;;3.13;;
4500;SDS011;2263;54.654;9.410;2023-02-28T01:17:49;4.43;;;3.77;;
4500;SDS011;2263;54.654;9.410;2023-02-28T01:20:35;4.17;;;3.77;;
4500;SDS011;2263;54.654;9.410;2023-02-28T01:23:21;3.40;;;2.87;;
4500;SDS011;2263;54.654;9.410;2023-02-28T01:26:07;3.50;;;3.27;;
4500;SDS011;2263;54.654;9.410;2023-02-28T01:28:57;3.33;;;3.03;;
4500;SDS011;2263;54.654;9.410;2023-02-28T01:31:42;4.97;;;3.70;;
4500;SDS011;2263;54.654;9.410;2023-02-28T01:34:27;3.87;;;3.50;;
4500;SDS011;2263;54.654;9.410;2023-02-28T01:37:11;5.40;;;3.53;;
4500;SDS011;2263;54.654;9.410;2023-02-28T01:39:56;4.83;;;3.00;;
4500;SDS011;2263;54.654;9.410;2023-02-28T01:42:40;3.87;;;3.57;;
4500;SDS011;2263;54.654;9.410;2023-02-28T01:45:28;7.83;;;4.20;;
4500;SDS011;2263;54.654;9.410;2023-02-28T01:48:14;3.53;;;3.20;;
4500;SDS011;2263;54.654;9.410;2023-02-28T01:51:00;6.53;;;3.70;;
4500;SDS011;2263;54.654;9.410;2023-02-28T01:53:51;5.03;;;4.40;;
4500;SDS011;2263;54.654;9.410;2023-02-28T01:56:51;3.73;;;3.43;;
4500;SDS011;2263;54.654;9.410;2023-02-28T01:59:40;4.60;;;3.37;;
4500;SDS011;2263;54.654;9.410;2023-02-28T02:02:35;4.23;;;3.90;;
4500;SDS011;2263;54.654;9.410;2023-02-28T02:05:21;3.50;;;3.20;;
4500;SDS011;2263;54.654;9.410;2023-02-28T02:08:12;3.37;;;3.17;;
4500;SDS011;2263;54.654;9.410;2023-02-28T02:11:03;3.20;;;3.00;;
4500;SDS011;2263;54.654;9.410;2023-02-28T02:16:53;4.37;;;3.93;;
4500;SDS011;2263;54.654;9.410;2023-02-28T02:32:08;3.97;;;3.50;;
4500;SDS011;2263;54.654;9.410;2023-02-28T02:35:08;4.43;;;4.03;;
4500;SDS011;2263;54.654;9.410;2023-02-28T02:47:38;5.30;;;3.90;;
4500;SDS011;2263;54.654;9.410;2023-02-28T02:50:06;4.10;;;3.53;;
4500;SDS011;2263;54.654;9.410;2023-02-28T02:52:56;5.30;;;4.20;;
4500;SDS011;2263;54.654;9.410;2023-02-28T02:55:46;3.63;;;2.90;;
4500;SDS011;2263;54.654;9.410;2023-02-28T02:58:37;3.33;;;3.03;;
4500;SDS011;2263;54.654;9.410;2023-02-28T03:01:25;4.30;;;3.90;;
4500;SDS011;2263;54.654;9.410;2023-02-28T03:04:13;5.23;;;3.60;;
4500;SDS011;2263;54.654;9.410;2023-02-28T03:07:01;3.57;;;3.27;;
4500;SDS011;2263;54.654;9.410;2023-02-28T03:09:50;4.80;;;4.30;;
4500;SDS011;2263;54.654;9.410;2023-02-28T03:12:40;3.90;;;3.60;;
4500;SDS011;2263;54.654;9.410;2023-02-28T03:15:37;4.07;;;3.70;;
4500;SDS011;2263;54.654;9.410;2023-02-28T03:24:50;4.63;;;3.90;;
4500;SDS011;2263;54.654;9.410;2023-02-28T03:27:53;4.63;;;4.03;;
4500;SDS011;2263;54.654;9.410;2023-02-28T03:37:04;4.13;;;3.83;;
4500;SDS011;2263;54.654;9.410;2023-02-28T03:40:26;4.47;;;4.07;;
4500;SDS011;2263;54.654;9.410;2023-02-28T03:43:09;4.37;;;3.93;;
4500;SDS011;2263;54.654;9.410;2023-02-28T03:45:56;5.23;;;4.67;;
4500;SDS011;2263;54.654;9.410;2023-02-28T03:48:48;7.07;;;3.80;;
4500;SDS011;2263;54.654;9.410;2023-02-28T03:51:36;8.10;;;3.63;;
4500;SDS011;2263;54.654;9.410;2023-02-28T03:54:31;3.87;;;3.57;;
4500;SDS011;2263;54.654;9.410;2023-02-28T03:57:37;7.20;;;4.13;;
4500;SDS011;2263;54.654;9.410;2023-02-28T04:00:33;6.33;;;5.70;;
4500;SDS011;2263;54.654;9.410;2023-02-28T04:03:23;6.23;;;4.17;;
4500;SDS011;2263;54.654;9.410;2023-02-28T04:06:08;6.87;;;4.20;;
4500;SDS011;2263;54.654;9.410;2023-02-28T04:09:02;4.93;;;4.23;;
4500;SDS011;2263;54.654;9.410;2023-02-28T04:11:51;4.70;;;4.40;;
4500;SDS011;2263;54.654;9.410;2023-02-28T04:14:39;9.13;;;4.37;;
4500;SDS011;2263;54.654;9.410;2023-02-28T04:17:23;5.87;;;5.30;;
4500;SDS011;2263;54.654;9.410;2023-02-28T04:20:08;5.43;;;4.90;;
4500;SDS011;2263;54.654;9.410;2023-02-28T04:22:53;5.10;;;4.03;;
4500;SDS011;2263;54.654;9.410;2023-02-28T04:25:37;5.00;;;4.33;;
4500;SDS011;2263;54.654;9.410;2023-02-28T04:28:23;5.30;;;4.80;;
4500;SDS011;2263;54.654;9.410;2023-02-28T04:31:08;5.70;;;5.10;;
4500;SDS011;2263;54.654;9.410;2023-02-28T04:33:53;6.40;;;5.80;;
4500;SDS011;2263;54.654;9.410;2023-02-28T04:36:37;5.67;;;5.03;;
4500;SDS011;2263;54.654;9.410;2023-02-28T04:39:22;7.97;;;4.97;;
4500;SDS011;2263;54.654;9.410;2023-02-28T04:42:08;5.90;;;4.93;;
4500;SDS011;2263;54.654;9.410;2023-02-28T04:44:52;5.90;;;5.10;;
4500;SDS011;2263;54.654;9.410;2023-02-28T04:47:37;6.63;;;5.90;;
4500;SDS011;2263;54.654;9.410;2023-02-28T04:50:21;5.37;;;4.87;;
4500;SDS011;2263;54.654;9.410;2023-02-28T04:53:06;4.60;;;4.23;;
4500;SDS011;2263;54.654;9.410;2023-02-28T04:55:50;8.33;;;5.40;;
4500;SDS011;2263;54.654;9.410;2023-02-28T04:58:34;6.57;;;5.20;;
4500;SDS011;2263;54.654;9.410;2023-02-28T05:04:03;6.63;;;5.10;;
4500;SDS011;2263;54.654;9.410;2023-02-28T05:06:48;6.87;;;4.83;;
4500;SDS011;2263;54.654;9.410;2023-02-28T05:09:32;7.27;;;4.90;;
4500;SDS011;2263;54.654;9.410;2023-02-28T05:12:16;6.03;;;5.43;;
4500;SDS011;2263;54.654;9.410;2023-02-28T05:15:01;4.97;;;4.47;;
4500;SDS011;2263;54.654;9.410;2023-02-28T05:17:46;6.07;;;5.57;;
4500;SDS011;2263;54.654;9.410;2023-02-28T05:20:30;4.70;;;4.13;;
4500;SDS011;2263;54.654;9.410;2023-02-28T05:23:15;6.53;;;5.93;;
4500;SDS011;2263;54.654;9.410;2023-02-28T05:26:01;6.63;;;5.80;;
4500;SDS011;2263;54.654;9.410;2023-02-28T05:28:46;5.93;;;5.47;;
4500;SDS011;2263;54.654;9.410;2023-02-28T05:31:31;8.27;;;4.73;;
4500;SDS011;2263;54.654;9.410;2023-02-28T05:34:16;5.20;;;4.80;;
4500;SDS011;2263;54.654;9.410;2023-02-28T05:37:01;7.77;;;6.13;;
4500;SDS011;2263;54.654;9.410;2023-02-28T05:39:45;10.50;;;5.73;;
4500;SDS011;2263;54.654;9.410;2023-02-28T05:42:30;5.97;;;5.37;;
4500;SDS011;2263;54.654;9.410;2023-02-28T05:45:14;6.27;;;5.30;;
4500;SDS011;2263;54.654;9.410;2023-02-28T05:47:58;5.50;;;5.03;;
4500;SDS011;2263;54.654;9.410;2023-02-28T05:50:43;9.20;;;5.60;;
4500;SDS011;2263;54.654;9.410;2023-02-28T05:53:30;5.53;;;5.07;;
4500;SDS011;2263;54.654;9.410;2023-02-28T05:56:14;7.50;;;5.93;;
4500;SDS011;2263;54.654;9.410;2023-02-28T05:58:59;10.90;;;7.00;;
4500;SDS011;2263;54.654;9.410;2023-02-28T06:01:45;6.73;;;6.10;;
4500;SDS011;2263;54.654;9.410;2023-02-28T06:04:31;6.07;;;5.57;;
4500;SDS011;2263;54.654;9.410;2023-02-28T06:07:16;9.37;;;6.57;;
4500;SDS011;2263;54.654;9.410;2023-02-28T06:10:01;8.43;;;6.30;;
4500;SDS011;2263;54.654;9.410;2023-02-28T06:12:46;7.53;;;6.13;;
4500;SDS011;2263;54.654;9.410;2023-02-28T06:15:30;7.83;;;5.90;;
4500;SDS011;2263;54.654;9.410;2023-02-28T06:18:14;8.30;;;7.00;;
4500;SDS011;2263;54.654;9.410;2023-02-28T06:20:59;6.53;;;5.93;;
4500;SDS011;2263;54.654;9.410;2023-02-28T06:23:43;8.87;;;7.03;;
4500;SDS011;2263;54.654;9.410;2023-02-28T06:26:28;9.43;;;6.03;;
4500;SDS011;2263;54.654;9.410;2023-02-28T06:29:13;7.23;;;6.53;;
4500;SDS011;2263;54.654;9.410;2023-02-28T06:32:02;7.53;;;6.40;;
4500;SDS011;2263;54.654;9.410;2023-02-28T06:34:47;10.50;;;6.77;;
4500;SDS011;2263;54.654;9.410;2023-02-28T06:37:31;7.17;;;6.50;;
4500;SDS011;2263;54.654;9.410;2023-02-28T06:40:16;7.00;;;6.30;;
4500;SDS011;2263;54.654;9.410;2023-02-28T06:43:01;8.63;;;7.60;;
4500;SDS011;2263;54.654;9.410;2023-02-28T06:45:45;12.23;;;10.93;;
4500;SDS011;2263;54.654;9.410;2023-02-28T06:48:30;39.87;;;27.00;;
4500;SDS011;2263;54.654;9.410;2023-02-28T06:51:19;38.70;;;30.77;;
4500;SDS011;2263;54.654;9.410;2023-02-28T06:54:06;47.57;;;31.50;;
4500;SDS011;2263;54.654;9.410;2023-02-28T06:56:52;39.73;;;29.70;;
4500;SDS011;2263;54.654;9.410;2023-02-28T06:59:37;33.10;;;27.57;;
4500;SDS011;2263;54.654;9.410;2023-02-28T07:02:22;30.23;;;26.70;;
4500;SDS011;2263;54.654;9.410;2023-02-28T07:05:06;30.70;;;24.47;;
4500;SDS011;2263;54.654;9.410;2023-02-28T07:07:51;33.90;;;23.93;;
4500;SDS011;2263;54.654;9.410;2023-02-28T07:10:39;30.30;;;22.90;;
4500;SDS011;2263;54.654;9.410;2023-02-28T07:13:23;27.77;;;22.40;;
4500;SDS011;2263;54.654;9.410;2023-02-28T07:16:09;22.00;;;19.43;;
4500;SDS011;2263;54.654;9.410;2023-02-28T07:18:54;28.13;;;20.97;;
4500;SDS011;2263;54.654;9.410;2023-02-28T07:21:39;23.70;;;19.27;;
4500;SDS011;2263;54.654;9.410;2023-02-28T07:24:23;20.27;;;16.37;;
4500;SDS011;2263;54.654;9.410;2023-02-28T07:27:11;20.23;;;16.50;;
4500;SDS011;2263;54.654;9.410;2023-02-28T07:29:56;19.13;;;14.13;;
4500;SDS011;2263;54.654;9.410;2023-02-28T07:32:40;18.50;;;15.10;;
4500;SDS011;2263;54.654;9.410;2023-02-28T07:35:25;16.67;;;14.50;;
4500;SDS011;2263;54.654;9.410;2023-02-28T07:38:09;14.60;;;13.17;;
4500;SDS011;2263;54.654;9.410;2023-02-28T07:40:55;14.83;;;13.27;;
4500;SDS011;2263;54.654;9.410;2023-02-28T07:43:39;15.30;;;12.20;;
4500;SDS011;2263;54.654;9.410;2023-02-28T07:46:24;18.50;;;13.10;;
4500;SDS011;2263;54.654;9.410;2023-02-28T07:49:09;14.03;;;12.53;;
4500;SDS011;2263;54.654;9.410;2023-02-28T07:51:53;15.83;;;12.63;;
4500;SDS011;2263;54.654;9.410;2023-02-28T07:54:37;13.53;;;12.13;;
4500;SDS011;2263;54.654;9.410;2023-02-28T07:57:22;14.97;;;12.50;;
4500;SDS011;2263;54.654;9.410;2023-02-28T08:00:07;14.80;;;13.30;;
4500;SDS011;2263;54.654;9.410;2023-02-28T08:02:53;14.17;;;11.30;;
4500;SDS011;2263;54.654;9.410;2023-02-28T08:05:39;18.90;;;12.43;;
4500;SDS011;2263;54.654;9.410;2023-02-28T08:08:23;16.60;;;12.17;;
4500;SDS011;2263;54.654;9.410;2023-02-28T08:11:08;17.50;;;12.60;;
4500;SDS011;2263;54.654;9.410;2023-02-28T08:13:54;19.07;;;12.63;;
4500;SDS011;2263;54.654;9.410;2023-02-28T08:16:38;18.50;;;12.60;;
4500;SDS011;2263;54.654;9.410;2023-02-28T08:19:23;13.33;;;11.30;;
4500;SDS011;2263;54.654;9.410;2023-02-28T08:22:07;13.17;;;11.53;;
4500;SDS011;2263;54.654;9.410;2023-02-28T08:24:52;14.20;;;11.43;;
4500;SDS011;2263;54.654;9.410;2023-02-28T08:27:36;17.90;;;11.57;;
4500;SDS011;2263;54.654;9.410;2023-02-28T08:30:21;18.00;;;12.10;;
4500;SDS011;2263;54.654;9.410;2023-02-28T08:33:05;16.83;;;10.97;;
4500;SDS011;2263;54.654;9.410;2023-02-28T08:35:52;19.17;;;12.63;;
4500;SDS011;2263;54.654;9.410;2023-02-28T08:38:40;15.90;;;12.40;;
4500;SDS011;2263;54.654;9.410;2023-02-28T08:41:24;20.23;;;12.53;;
4500;SDS011;2263;54.654;9.410;2023-02-28T08:44:08;17.00;;;12.00;;
4500;SDS011;2263;54.654;9.410;2023-02-28T08:46:53;18.70;;;11.93;;
4500;SDS011;2263;54.654;9.410;2023-02-28T08:49:37;21.60;;;12.93;;
4500;SDS011;2263;54.654;9.410;2023-02-28T08:52:22;21.33;;;13.10;;
4500;SDS011;2263;54.654;9.410;2023-02-28T08:55:06;19.87;;;13.20;;
4500;SDS011;2263;54.654;9.410;2023-02-28T08:57:53;18.40;;;11.30;;
4500;SDS011;2263;54.654;9.410;2023-02-28T09:00:38;17.17;;;13.67;;
4500;SDS011;2263;54.654;9.410;2023-02-28T09:03:23;16.70;;;12.40;;
4500;SDS011;2263;54.654;9.410;2023-02-28T09:06:08;18.73;;;12.10;;
4500;SDS011;2263;54.654;9.410;2023-02-28T09:08:56;20.87;;;11.60;;
4500;SDS011;2263;54.654;9.410;2023-02-28T09:11:44;16.93;;;11.77;;
4500;SDS011;2263;54.654;9.410;2023-02-28T09:14:29;18.33;;;11.40;;
4500;SDS011;2263;54.654;9.410;2023-02-28T09:17:13;15.93;;;11.40;;
4500;SDS011;2263;54.654;9.410;2023-02-28T09:19:58;17.70;;;11.13;;
4500;SDS011;2263;54.654;9.410;2023-02-28T09:22:42;19.10;;;12.37;;
4500;SDS011;2263;54.654;9.410;2023-02-28T09:25:27;23.70;;;11.50;;
4500;SDS011;2263;54.654;9.410;2023-02-28T09:28:11;15.37;;;10.60;;
4500;SDS011;2263;54.654;9.410;2023-02-28T09:30:56;15.77;;;11.37;;
4500;SDS011;2263;54.654;9.410;2023-02-28T09:33:42;18.80;;;11.60;;
4500;SDS011;2263;54.654;9.410;2023-02-28T09:36:26;14.57;;;10.80;;
4500;SDS011;2263;54.654;9.410;2023-02-28T09:39:12;14.43;;;9.70;;
4500;SDS011;2263;54.654;9.410;2023-02-28T09:41:59;12.03;;;9.33;;
4500;SDS011;2263;54.654;9.410;2023-02-28T09:44:45;14.33;;;10.77;;
4500;SDS011;2263;54.654;9.410;2023-02-28T09:47:32;17.10;;;10.30;;
4500;SDS011;2263;54.654;9.410;2023-02-28T09:53:28;17.10;;;10.00;;
4500;SDS011;2263;54.654;9.410;2023-02-28T09:56:20;18.20;;;9.63;;
4500;SDS011;2263;54.654;9.410;2023-02-28T10:02:19;19.37;;;10.03;;
4500;SDS011;2263;54.654;9.410;2023-02-28T10:05:21;15.40;;;9.83;;
4500;SDS011;2263;54.654;9.410;2023-02-28T10:08:17;20.00;;;11.23;;
4500;SDS011;2263;54.654;9.410;2023-02-28T10:11:26;13.93;;;8.70;;
4500;SDS011;2263;54.654;9.410;2023-02-28T10:14:14;14.00;;;9.10;;
4500;SDS011;2263;54.654;9.410;2023-02-28T10:17:02;12.63;;;8.27;;
4500;SDS011;2263;54.654;9.410;2023-02-28T10:26:21;13.80;;;9.10;;
4500;SDS011;2263;54.654;9.410;2023-02-28T10:29:08;12.53;;;8.40;;
4500;SDS011;2263;54.654;9.410;2023-02-28T10:31:53;11.87;;;7.63;;
4500;SDS011;2263;54.654;9.410;2023-02-28T10:34:37;11.30;;;8.23;;
4500;SDS011;2263;54.654;9.410;2023-02-28T10:37:22;10.30;;;7.77;;
4500;SDS011;2263;54.654;9.410;2023-02-28T10:40:07;9.43;;;6.90;;
4500;SDS011;2263;54.654;9.410;2023-02-28T10:46:09;13.00;;;6.87;;
4500;SDS011;2263;54.654;9.410;2023-02-28T10:49:02;11.80;;;7.90;;
4500;SDS011;2263;54.654;9.410;2023-02-28T10:51:52;8.80;;;7.13;;
4500;SDS011;2263;54.654;9.410;2023-02-28T10:54:42;9.97;;;7.00;;
4500;SDS011;2263;54.654;9.410;2023-02-28T10:57:26;9.97;;;6.83;;
4500;SDS011;2263;54.654;9.410;2023-02-28T11:00:16;9.50;;;7.23;;
4500;SDS011;2263;54.654;9.410;2023-02-28T11:03:01;10.37;;;7.03;;
4500;SDS011;2263;54.654;9.410;2023-02-28T11:05:48;10.73;;;6.80;;
4500;SDS011;2263;54.654;9.410;2023-02-28T11:08:32;8.80;;;7.43;;
4500;SDS011;2263;54.654;9.410;2023-02-28T11:11:18;8.73;;;6.40;;
4500;SDS011;2263;54.654;9.410;2023-02-28T11:14:04;12.67;;;6.20;;
4500;SDS011;2263;54.654;9.410;2023-02-28T11:16:59;10.33;;;6.90;;
4500;SDS011;2263;54.654;9.410;2023-02-28T11:19:56;8.50;;;6.43;;
4500;SDS011;2263;54.654;9.410;2023-02-28T11:23:04;8.90;;;5.30;;
4500;SDS011;2263;54.654;9.410;2023-02-28T11:25:56;11.60;;;5.90;;
4500;SDS011;2263;54.654;9.410;2023-02-28T11:28:43;5.83;;;5.03;;
4500;SDS011;2263;54.654;9.410;2023-02-28T11:31:28;8.77;;;5.83;;
4500;SDS011;2263;54.654;9.410;2023-02-28T11:34:34;10.13;;;6.67;;
4500;SDS011;2263;54.654;9.410;2023-02-28T11:37:19;8.87;;;6.70;;
4500;SDS011;2263;54.654;9.410;2023-02-28T11:40:14;6.90;;;5.97;;
4500;SDS011;2263;54.654;9.410;2023-02-28T11:46:22;7.70;;;6.00;;
4500;SDS011;2263;54.654;9.410;2023-02-28T11:55:31;6.50;;;5.20;;
4500;SDS011;2263;54.654;9.410;2023-02-28T12:01:52;7.77;;;5.63;;
4500;SDS011;2263;54.654;9.410;2023-02-28T12:08:27;10.57;;;5.33;;
4500;SDS011;2263;54.654;9.410;2023-02-28T12:20:49;7.13;;;5.33;;
4500;SDS011;2263;54.654;9.410;2023-02-28T12:24:04;23.53;;;7.00;;
4500;SDS011;2263;54.654;9.410;2023-02-28T12:27:00;9.97;;;6.83;;
4500;SDS011;2263;54.654;9.410;2023-02-28T12:29:54;9.03;;;7.13;;
4500;SDS011;2263;54.654;9.410;2023-02-28T12:33:04;8.77;;;5.70;;
4500;SDS011;2263;54.654;9.410;2023-02-28T12:35:56;5.60;;;4.80;;
4500;SDS011;2263;54.654;9.410;2023-02-28T12:38:43;8.23;;;6.00;;
4500;SDS011;2263;54.654;9.410;2023-02-28T12:41:42;6.57;;;5.47;;
4500;SDS011;2263;54.654;9.410;2023-02-28T12:47:22;5.37;;;4.93;;
4500;SDS011;2263;54.654;9.410;2023-02-28T12:50:08;5.83;;;4.80;;
4500;SDS011;2263;54.654;9.410;2023-02-28T12:53:06;6.00;;;5.07;;
4500;SDS011;2263;54.654;9.410;2023-02-28T12:58:56;6.90;;;5.20;;
4500;SDS011;2263;54.654;9.410;2023-02-28T13:10:57;5.93;;;5.17;;
4500;SDS011;2263;54.654;9.410;2023-02-28T13:13:41;7.43;;;5.50;;
4500;SDS011;2263;54.654;9.410;2023-02-28T13:16:42;5.73;;;4.97;;
4500;SDS011;2263;54.654;9.410;2023-02-28T13:19:43;9.03;;;6.17;;
4500;SDS011;2263;54.654;9.410;2023-02-28T13:22:39;7.83;;;5.77;;
4500;SDS011;2263;54.654;9.410;2023-02-28T13:37:36;7.23;;;4.90;;
4500;SDS011;2263;54.654;9.410;2023-02-28T13:40:26;5.90;;;5.30;;
4500;SDS011;2263;54.654;9.410;2023-02-28T13:43:11;10.43;;;5.80;;
4500;SDS011;2263;54.654;9.410;2023-02-28T13:46:07;6.57;;;6.03;;
4500;SDS011;2263;54.654;9.410;2023-02-28T13:48:54;6.13;;;5.53;;
4500;SDS011;2263;54.654;9.410;2023-02-28T13:51:40;12.97;;;6.43;;
4500;SDS011;2263;54.654;9.410;2023-02-28T13:57:50;7.63;;;6.17;;
4500;SDS011;2263;54.654;9.410;2023-02-28T14:07:36;9.80;;;5.80;;
4500;SDS011;2263;54.654;9.410;2023-02-28T14:10:33;8.47;;;6.03;;
4500;SDS011;2263;54.654;9.410;2023-02-28T14:16:45;10.00;;;6.03;;
4500;SDS011;2263;54.654;9.410;2023-02-28T14:19:34;6.90;;;5.70;;
4500;SDS011;2263;54.654;9.410;2023-02-28T14:25:23;10.33;;;5.20;;
4500;SDS011;2263;54.654;9.410;2023-02-28T14:38:14;7.03;;;4.93;;
4500;SDS011;2263;54.654;9.410;2023-02-28T14:41:13;10.50;;;5.23;;
4500;SDS011;2263;54.654;9.410;2023-02-28T14:44:01;5.70;;;5.20;;
4500;SDS011;2263;54.654;9.410;2023-02-28T14:46:51;6.27;;;5.70;;
4500;SDS011;2263;54.654;9.410;2023-02-28T14:49:44;8.33;;;6.70;;
4500;SDS011;2263;54.654;9.410;2023-02-28T14:52:31;7.13;;;4.83;;
4500;SDS011;2263;54.654;9.410;2023-02-28T14:55:17;7.00;;;5.40;;
4500;SDS011;2263;54.654;9.410;2023-02-28T14:58:04;7.00;;;5.80;;
4500;SDS011;2263;54.654;9.410;2023-02-28T15:00:51;6.17;;;5.30;;
4500;SDS011;2263;54.654;9.410;2023-02-28T15:03:38;7.27;;;6.10;;
4500;SDS011;2263;54.654;9.410;2023-02-28T15:06:23;6.73;;;5.70;;
4500;SDS011;2263;54.654;9.410;2023-02-28T15:09:10;7.23;;;6.20;;
4500;SDS011;2263;54.654;9.410;2023-02-28T15:11:59;8.10;;;6.20;;
4500;SDS011;2263;54.654;9.410;2023-02-28T15:14:43;9.77;;;6.90;;
4500;SDS011;2263;54.654;9.410;2023-02-28T15:17:28;7.47;;;6.77;;
4500;SDS011;2263;54.654;9.410;2023-02-28T15:20:13;7.63;;;6.00;;
4500;SDS011;2263;54.654;9.410;2023-02-28T15:22:58;9.63;;;6.60;;
4500;SDS011;2263;54.654;9.410;2023-02-28T15:25:43;8.20;;;7.40;;
4500;SDS011;2263;54.654;9.410;2023-02-28T15:28:28;6.93;;;6.30;;
4500;SDS011;2263;54.654;9.410;2023-02-28T15:31:20;9.07;;;7.10;;
4500;SDS011;2263;54.654;9.410;2023-02-28T15:34:36;11.70;;;7.90;;
4500;SDS011;2263;54.654;9.410;2023-02-28T15:40:45;7.90;;;7.20;;
4500;SDS011;2263;54.654;9.410;2023-02-28T15:43:40;8.73;;;7.67;;
4500;SDS011;2263;54.654;9.410;2023-02-28T15:46:24;13.03;;;8.43;;
4500;SDS011;2263;54.654;9.410;2023-02-28T15:49:13;10.70;;;7.30;;
4500;SDS011;2263;54.654;9.410;2023-02-28T15:52:04;10.13;;;7.53;;
4500;SDS011;2263;54.654;9.410;2023-02-28T15:54:48;8.87;;;7.97;;
4500;SDS011;2263;54.654;9.410;2023-02-28T15:57:33;10.67;;;7.83;;
4500;SDS011;2263;54.654;9.410;2023-02-28T16:00:22;13.20;;;7.80;;
4500;SDS011;2263;54.654;9.410;2023-02-28T16:03:23;12.00;;;8.23;;
4500;SDS011;2263;54.654;9.410;2023-02-28T16:09:01;11.60;;;8.73;;
4500;SDS011;2263;54.654;9.410;2023-02-28T16:11:49;9.00;;;8.20;;
4500;SDS011;2263;54.654;9.410;2023-02-28T16:14:36;10.27;;;8.90;;
4500;SDS011;2263;54.654;9.410;2023-02-28T16:17:26;16.20;;;9.00;;
4500;SDS011;2263;54.654;9.410;2023-02-28T16:23:10;9.00;;;7.47;;
4500;SDS011;2263;54.654;9.410;2023-02-28T16:25:54;11.60;;;8.60;;
4500;SDS011;2263;54.654;9.410;2023-02-28T16:28:39;11.50;;;8.40;;
4500;SDS011;2263;54.654;9.410;2023-02-28T16:31:23;8.63;;;7.70;;
4500;SDS011;2263;54.654;9.410;2023-02-28T16:34:08;14.43;;;8.37;;
4500;SDS011;2263;54.654;9.410;2023-02-28T16:36:52;10.87;;;7.43;;
4500;SDS011;2263;54.654;9.410;2023-02-28T16:39:37;12.17;;;7.67;;
4500;SDS011;2263;54.654;9.410;2023-02-28T16:42:23;9.33;;;6.90;;
4500;SDS011;2263;54.654;9.410;2023-02-28T16:45:31;11.80;;;7.73;;
4500;SDS011;2263;54.654;9.410;2023-02-28T16:48:15;10.00;;;8.53;;
4500;SDS011;2263;54.654;9.410;2023-02-28T16:51:00;11.03;;;8.63;;
4500;SDS011;2263;54.654;9.410;2023-02-28T16:53:44;12.63;;;9.07;;
4500;SDS011;2263;54.654;9.410;2023-02-28T16:56:29;11.80;;;8.70;;
4500;SDS011;2263;54.654;9.410;2023-02-28T16:59:15;16.90;;;10.00;;
4500;SDS011;2263;54.654;9.410;2023-02-28T17:02:12;12.47;;;9.33;;
4500;SDS011;2263;54.654;9.410;2023-02-28T17:04:58;11.17;;;7.90;;
4500;SDS011;2263;54.654;9.410;2023-02-28T17:07:43;9.93;;;8.60;;
4500;SDS011;2263;54.654;9.410;2023-02-28T17:10:28;12.50;;;8.87;;
4500;SDS011;2263;54.654;9.410;2023-02-28T17:13:13;11.00;;;8.17;;
4500;SDS011;2263;54.654;9.410;2023-02-28T17:15:57;14.77;;;8.70;;
4500;SDS011;2263;54.654;9.410;2023-02-28T17:18:41;11.80;;;8.50;;
4500;SDS011;2263;54.654;9.410;2023-02-28T17:21:27;16.80;;;8.63;;
4500;SDS011;2263;54.654;9.410;2023-02-28T17:24:11;12.77;;;8.83;;
4500;SDS011;2263;54.654;9.410;2023-02-28T17:26:56;12.20;;;8.37;;
4500;SDS011;2263;54.654;9.410;2023-02-28T17:29:41;9.43;;;8.50;;
4500;SDS011;2263;54.654;9.410;2023-02-28T17:32:25;10.23;;;7.87;;
4500;SDS011;2263;54.654;9.410;2023-02-28T17:35:11;17.63;;;8.93;;
4500;SDS011;2263;54.654;9.410;2023-02-28T17:37:57;11.47;;;9.37;;
4500;SDS011;2263;54.654;9.410;2023-02-28T17:40:41;9.90;;;8.37;;
4500;SDS011;2263;54.654;9.410;2023-02-28T17:43:26;10.50;;;8.20;;
4500;SDS011;2263;54.654;9.410;2023-02-28T17:46:17;14.20;;;9.90;;
4500;SDS011;2263;54.654;9.410;2023-02-28T17:49:08;13.43;;;9.63;;
4500;SDS011;2263;54.654;9.410;2023-02-28T17:51:53;13.50;;;9.40;;
4500;SDS011;2263;54.654;9.410;2023-02-28T17:54:37;13.53;;;9.80;;
4500;SDS011;2263;54.654;9.410;2023-02-28T17:57:25;12.87;;;9.50;;
4500;SDS011;2263;54.654;9.410;2023-02-28T18:00:13;15.50;;;9.40;;
4500;SDS011;2263;54.654;9.410;2023-02-28T18:02:59;13.43;;;10.07;;
4500;SDS011;2263;54.654;9.410;2023-02-28T18:05:44;14.80;;;12.67;;
4500;SDS011;2263;54.654;9.410;2023-02-28T18:08:28;17.07;;;11.47;;
4500;SDS011;2263;54.654;9.410;2023-02-28T18:11:14;16.93;;;10.67;;
4500;SDS011;2263;54.654;9.410;2023-02-28T18:14:02;14.73;;;11.17;;
4500;SDS011;2263;54.654;9.410;2023-02-28T18:16:47;13.30;;;9.77;;
4500;SDS011;2263;54.654;9.410;2023-02-28T18:19:34;19.10;;;11.50;;
4500;SDS011;2263;54.654;9.410;2023-02-28T18:22:18;15.37;;;11.40;;
4500;SDS011;2263;54.654;9.410;2023-02-28T18:25:03;17.87;;;12.13;;
4500;SDS011;2263;54.654;9.410;2023-02-28T18:27:49;19.20;;;12.47;;
4500;SDS011;2263;54.654;9.410;2023-02-28T18:30:36;16.30;;;11.80;;
4500;SDS011;2263;54.654;9.410;2023-02-28T18:33:21;16.53;;;10.50;;
4500;SDS011;2263;54.654;9.410;2023-02-28T18:36:05;19.33;;;11.80;;
4500;SDS011;2263;54.654;9.410;2023-02-28T18:38:50;15.37;;;11.60;;
4500;SDS011;2263;54.654;9.410;2023-02-28T18:41:35;20.07;;;11.40;;
4500;SDS011;2263;54.654;9.410;2023-02-28T18:44:20;17.10;;;12.10;;
4500;SDS011;2263;54.654;9.410;2023-02-28T18:47:05;17.80;;;11.60;;
4500;SDS011;2263;54.654;9.410;2023-02-28T18:49:50;13.80;;;11.73;;
4500;SDS011;2263;54.654;9.410;2023-02-28T18:52:34;16.50;;;11.87;;
4500;SDS011;2263;54.654;9.410;2023-02-28T18:55:22;20.30;;;12.97;;
4500;SDS011;2263;54.654;9.410;2023-02-28T18:58:06;22.57;;;13.63;;
4500;SDS011;2263;54.654;9.410;2023-02-28T19:00:51;16.80;;;11.50;;
4500;SDS011;2263;54.654;9.410;2023-02-28T19:03:38;17.27;;;12.50;;
4500;SDS011;2263;54.654;9.410;2023-02-28T19:06:22;17.47;;;11.80;;
4500;SDS011;2263;54.654;9.410;2023-02-28T19:09:07;18.10;;;12.33;;
4500;SDS011;2263;54.654;9.410;2023-02-28T19:11:52;16.40;;;11.30;;
4500;SDS011;2263;54.654;9.410;2023-02-28T19:14:37;21.93;;;12.60;;
4500;SDS011;2263;54.654;9.410;2023-02-28T19:17:21;19.97;;;12.13;;
4500;SDS011;2263;54.654;9.410;2023-02-28T19:20:06;15.93;;;11.17;;
4500;SDS011;2263;54.654;9.410;2023-02-28T19:22:52;16.83;;;11.80;;
4500;SDS011;2263;54.654;9.410;2023-02-28T19:25:39;24.73;;;14.10;;
4500;SDS011;2263;54.654;9.410;2023-02-28T19:28:28;15.77;;;12.57;;
4500;SDS011;2263;54.654;9.410;2023-02-28T19:31:20;21.47;;;12.33;;
4500;SDS011;2263;54.654;9.410;2023-02-28T19:34:07;20.23;;;12.40;;